Time;durP1;ratioP1;P1;durP2;ratioP2;P2;SDS_P1;SDS_P2;PMS_P1;PMS_P2;Temp;Humidity;BMP_temperature;BMP_pressure;BME280_temperature;BME280_humidity;BME280_pressure;Samples;Min_cycle;Max_cycle;Signal;HPM_P1;HPM_P2
2022/06/03 00:00:24;;;;;;;0.00;0.00;;;18.90;67.70;;;;;;4192761;28;20067;-66
2022/06/03 00:03:13;;;;;;;0.00;0.00;;;18.90;67.70;;;;;;4193096;28;20045;-66
2022/06/03 00:06:26;;;;;;;0.10;0.10;;;18.90;67.80;;;;;;4193105;28;20854;-66
2022/06/03 00:09:19;;;;;;;0.00;0.00;;;18.90;67.80;;;;;;4191144;28;20083;-66
2022/06/03 00:12:05;;;;;;;0.00;0.00;;;18.90;67.80;;;;;;4191281;28;20078;-66
2022/06/03 00:14:45;;;;;;;0.00;0.00;;;18.90;67.90;;;;;;4190811;28;20052;-65
2022/06/03 00:17:19;;;;;;;0.00;0.00;;;18.80;67.90;;;;;;4192319;28;20416;-65
2022/06/03 00:19:50;;;;;;;0.03;0.03;;;18.80;68.00;;;;;;4190633;28;20518;-68
2022/06/03 00:22:33;;;;;;;0.00;0.00;;;18.80;68.00;;;;;;4192639;28;20060;-68
2022/06/03 00:25:07;;;;;;;0.00;0.00;;;18.80;68.10;;;;;;4192386;28;20048;-68
2022/06/03 00:28:09;;;;;;;0.00;0.00;;;18.80;68.10;;;;;;4175632;28;20045;-68
2022/06/03 00:30:47;;;;;;;0.00;0.00;;;18.80;68.10;;;;;;4175926;28;20040;-68
2022/06/03 00:33:40;;;;;;;0.80;0.80;;;18.80;68.10;;;;;;4159461;28;20104;-68
2022/06/03 00:36:17;;;;;;;0.00;0.00;;;18.80;68.20;;;;;;4159640;28;20056;-68
2022/06/03 00:38:54;;;;;;;0.00;0.00;;;18.80;68.20;;;;;;4174171;28;20476;-68
2022/06/03 00:41:29;;;;;;;0.00;0.00;;;18.70;68.20;;;;;;4162153;28;20134;-68
2022/06/03 00:44:09;;;;;;;9.68;0.93;;;18.70;68.20;;;;;;4175730;28;20051;-67
2022/06/03 00:47:00;;;;;;;0.00;0.00;;;18.70;68.30;;;;;;4175413;28;20072;-68
2022/06/03 00:49:52;;;;;;;0.00;0.00;;;18.70;68.40;;;;;;4174012;28;20059;-68
2022/06/03 00:52:49;;;;;;;0.00;0.00;;;18.70;68.40;;;;;;4175392;28;20496;-68
2022/06/03 00:56:00;;;;;;;0.20;0.20;;;18.70;68.40;;;;;;4182280;28;20052;-67
2022/06/03 00:58:44;;;;;;;0.00;0.00;;;18.70;68.40;;;;;;4192113;28;20147;-67
2022/06/03 01:01:13;;;;;;;0.52;0.28;;;18.70;68.50;;;;;;4191588;28;20547;-68
2022/06/03 01:03:57;;;;;;;0.00;0.00;;;18.70;68.50;;;;;;4191908;28;20048;-67
2022/06/03 01:06:27;;;;;;;0.00;0.00;;;18.70;68.50;;;;;;4192141;28;20048;-67
2022/06/03 01:09:07;;;;;;;0.00;0.00;;;18.60;68.50;;;;;;4191917;28;20131;-67
2022/06/03 01:11:53;;;;;;;0.00;0.00;;;18.60;69.50;;;;;;4191391;28;20079;-67
2022/06/03 01:14:32;;;;;;;0.00;0.00;;;18.60;68.60;;;;;;4192091;28;20503;-67
2022/06/03 01:17:05;;;;;;;0.00;0.00;;;18.60;68.70;;;;;;4191763;28;20049;-67
2022/06/03 01:19:57;;;;;;;0.20;0.20;;;18.60;68.70;;;;;;4191782;28;20442;-67
2022/06/03 01:22:49;;;;;;;0.00;0.00;;;18.60;68.70;;;;;;4189212;28;20141;-67
2022/06/03 01:25:48;;;;;;;0.00;0.00;;;18.60;68.80;;;;;;4191930;28;20052;-67
2022/06/03 01:28:44;;;;;;;0.10;0.10;;;18.60;68.80;;;;;;4191915;28;20064;-68
2022/06/03 01:31:27;;;;;;;0.00;0.00;;;18.60;68.90;;;;;;4191338;28;20048;-67
2022/06/03 01:34:08;;;;;;;0.00;0.00;;;18.50;68.80;;;;;;4175069;28;20067;-67
2022/06/03 01:36:55;;;;;;;0.00;0.00;;;18.60;69.00;;;;;;4175196;28;20069;-68
2022/06/03 01:39:35;;;;;;;0.20;0.20;;;18.50;68.90;;;;;;4176508;28;20053;-67
2022/06/03 01:42:39;;;;;;;0.00;0.00;;;18.50;68.90;;;;;;4191804;28;20565;-68
2022/06/03 01:45:19;;;;;;;0.32;0.32;;;18.50;69.00;;;;;;4191256;28;20135;-68
2022/06/03 01:48:07;;;;;;;0.00;0.00;;;18.50;69.00;;;;;;4191650;28;20552;-68
2022/06/03 01:50:47;;;;;;;0.00;0.00;;;18.50;69.90;;;;;;4191444;28;20426;-67
2022/06/03 01:53:35;;;;;;;0.00;0.00;;;18.50;69.10;;;;;;4191461;28;20054;-67
2022/06/03 01:56:34;;;;;;;0.00;0.00;;;18.50;69.10;;;;;;4191554;28;20059;-68
2022/06/03 01:59:38;;;;;;;0.08;0.08;;;18.50;70.30;;;;;;4191431;28;20117;-68
2022/06/03 02:02:29;;;;;;;0.00;0.00;;;18.40;69.40;;;;;;4175048;28;20076;-68
2022/06/03 02:05:17;;;;;;;0.00;0.00;;;18.50;69.50;;;;;;4178552;28;20057;-68
2022/06/03 02:08:06;;;;;;;0.00;0.00;;;18.40;69.40;;;;;;4160438;28;20436;-68
2022/06/03 02:11:20;;;;;;;0.00;0.00;;;18.40;69.40;;;;;;4174216;28;20041;-68
2022/06/03 02:14:26;;;;;;;0.00;0.00;;;18.40;69.40;;;;;;4194698;28;20097;-68
2022/06/03 02:17:13;;;;;;;0.03;0.03;;;18.40;69.40;;;;;;4194375;28;20069;-68
2022/06/03 02:20:14;;;;;;;0.00;0.00;;;18.40;69.40;;;;;;4194005;28;20094;-68
2022/06/03 02:23:13;;;;;;;0.00;0.00;;;18.40;69.40;;;;;;4186246;28;20040;-68
2022/06/03 02:26:03;;;;;;;0.40;0.40;;;18.40;70.30;;;;;;4177930;28;20065;-68
2022/06/03 02:28:48;;;;;;;0.10;0.10;;;18.40;69.60;;;;;;4177658;28;20465;-68
2022/06/03 02:31:35;;;;;;;0.00;0.00;;;18.30;69.60;;;;;;4177849;28;20052;-68
2022/06/03 02:34:41;;;;;;;0.00;0.00;;;18.40;69.70;;;;;;4177536;28;20052;-68
2022/06/03 02:37:53;;;;;;;0.00;0.00;;;18.40;69.70;;;;;;4176214;28;20049;-68
2022/06/03 02:40:51;;;;;;;0.00;0.00;;;18.30;69.80;;;;;;4194000;28;20048;-68
2022/06/03 02:43:37;;;;;;;0.00;0.00;;;18.30;69.60;;;;;;4193209;28;20395;-68
2022/06/03 02:46:41;;;;;;;1.95;1.30;;;18.30;69.60;;;;;;4194235;28;20055;-67
2022/06/03 02:49:33;;;;;;;0.00;0.00;;;18.30;69.60;;;;;;4184476;28;20491;-67
2022/06/03 02:52:24;;;;;;;0.00;0.00;;;18.30;69.80;;;;;;4176355;28;20052;-67
2022/06/03 02:55:18;;;;;;;0.40;0.40;;;18.30;69.80;;;;;;4177322;28;20045;-67
2022/06/03 02:58:19;;;;;;;1.02;1.02;;;18.30;69.80;;;;;;4177655;28;20495;-67
2022/06/03 03:00:57;;;;;;;0.10;0.10;;;18.30;69.80;;;;;;4177024;28;20476;-68
2022/06/03 03:03:56;;;;;;;0.00;0.00;;;18.30;69.80;;;;;;4177294;28;20049;-67
2022/06/03 03:06:48;;;;;;;0.00;0.00;;;18.30;69.90;;;;;;4177150;28;20053;-67
2022/06/03 03:09:27;;;;;;;0.00;0.00;;;18.20;70.60;;;;;;4187810;28;20492;-68
2022/06/03 03:12:17;;;;;;;0.22;0.22;;;18.20;69.80;;;;;;4192154;28;20511;-67
2022/06/03 03:15:13;;;;;;;0.00;0.00;;;18.20;69.90;;;;;;4177330;28;20049;-68
2022/06/03 03:18:07;;;;;;;0.00;0.00;;;18.20;69.80;;;;;;4176917;28;20484;-68
2022/06/03 03:21:07;;;;;;;0.10;0.10;;;18.20;69.80;;;;;;4159025;28;20450;-68
2022/06/03 03:24:05;;;;;;;0.15;0.15;;;18.20;69.80;;;;;;4174976;28;20056;-68
2022/06/03 03:26:33;;;;;;;0.00;0.00;;;18.20;69.80;;;;;;4175968;28;20045;-68
2022/06/03 03:29:09;;;;;;;0.00;0.00;;;18.20;69.80;;;;;;4186832;28;20871;-68
2022/06/03 03:31:48;;;;;;;0.55;0.40;;;18.20;69.80;;;;;;4191919;28;20052;-68
2022/06/03 03:34:27;;;;;;;0.17;0.17;;;18.10;69.80;;;;;;4193372;28;20048;-68
2022/06/03 03:37:24;;;;;;;0.00;0.00;;;18.10;69.80;;;;;;4193482;28;20044;-68
2022/06/03 03:40:34;;;;;;;0.30;0.30;;;18.20;69.90;;;;;;4175156;28;20131;-68
2022/06/03 03:43:29;;;;;;;0.00;0.00;;;18.10;69.80;;;;;;4183596;28;20059;-68
2022/06/03 03:46:24;;;;;;;0.00;0.00;;;18.10;69.70;;;;;;4192607;28;20072;-68
2022/06/03 03:49:15;;;;;;;0.00;0.00;;;18.10;69.80;;;;;;4191195;28;20048;-68
2022/06/03 03:52:05;;;;;;;0.10;0.10;;;18.10;69.80;;;;;;4188040;28;20064;-68
2022/06/03 03:54:50;;;;;;;0.50;0.50;;;18.10;69.70;;;;;;4192931;28;20055;-68
2022/06/03 03:57:40;;;;;;;0.00;0.00;;;18.10;69.70;;;;;;4176421;28;20052;-68
2022/06/03 04:00:14;;;;;;;0.00;0.00;;;18.10;69.70;;;;;;4176234;28;20068;-68
2022/06/03 04:03:23;;;;;;;0.00;0.00;;;18.10;69.70;;;;;;4176496;28;20049;-68
2022/06/03 04:06:11;;;;;;;0.00;0.00;;;18.10;70.50;;;;;;4176284;28;20048;-68
2022/06/03 04:08:58;;;;;;;0.00;0.00;;;18.10;69.80;;;;;;4160019;28;20475;-67
2022/06/03 04:11:46;;;;;;;0.00;0.00;;;18.10;69.80;;;;;;4158916;28;20045;-68
2022/06/03 04:14:37;;;;;;;0.85;0.75;;;18.10;69.90;;;;;;4159519;28;20049;-68
2022/06/03 04:17:37;;;;;;;0.00;0.00;;;18.10;70.00;;;;;;4170140;28;20052;-68
2022/06/03 04:20:25;;;;;;;0.00;0.00;;;18.10;69.90;;;;;;4182253;28;20044;-68
2022/06/03 04:23:07;;;;;;;0.00;0.00;;;18.10;70.00;;;;;;4159341;28;20058;-68
2022/06/03 04:25:54;;;;;;;3.10;0.93;;;18.10;70.00;;;;;;4191771;28;20049;-68
2022/06/03 04:29:00;;;;;;;0.22;0.22;;;18.10;69.90;;;;;;4192267;28;20044;-68
2022/06/03 04:32:03;;;;;;;0.00;0.00;;;18.10;69.90;;;;;;4192188;28;20045;-68
2022/06/03 04:35:24;;;;;;;0.00;0.00;;;18.10;69.90;;;;;;4191918;28;20048;-68
2022/06/03 04:38:39;;;;;;;0.00;0.00;;;18.10;70.00;;;;;;4140678;28;20050;-68
2022/06/03 04:42:02;;;;;;;0.00;0.00;;;18.10;70.00;;;;;;4192185;28;20055;-68
2022/06/03 04:45:01;;;;;;;0.25;0.25;;;18.20;70.10;;;;;;4126520;28;20157;-68
2022/06/03 04:48:03;;;;;;;0.10;0.10;;;18.20;70.10;;;;;;4140162;28;20066;-68
2022/06/03 04:50:55;;;;;;;;;;;18.20;70.10;;;;;;4192699;28;20060;-67
2022/06/03 04:54:03;;;;;;;0.00;0.00;;;18.20;70.00;;;;;;4192208;28;20319;-68
2022/06/03 04:57:00;;;;;;;0.20;0.20;;;18.20;70.00;;;;;;4191633;28;20094;-68
2022/06/03 05:00:03;;;;;;;0.00;0.00;;;18.20;70.10;;;;;;4192147;28;20052;-67
2022/06/03 05:03:02;;;;;;;0.00;0.00;;;18.20;71.10;;;;;;4176255;28;20099;-67
2022/06/03 05:06:01;;;;;;;0.10;0.10;;;18.20;70.20;;;;;;4175215;28;20102;-68
2022/06/03 05:08:52;;;;;;;0.00;0.00;;;18.20;70.40;;;;;;4175817;28;20124;-68
2022/06/03 05:11:56;;;;;;;0.00;0.00;;;18.20;70.80;;;;;;4174121;28;20053;-69
2022/06/03 05:14:54;;;;;;;0.00;0.00;;;18.30;71.50;;;;;;4188742;28;20044;-70
2022/06/03 05:17:46;;;;;;;0.10;0.10;;;18.40;71.50;;;;;;4187942;28;20044;-69
2022/06/03 05:20:44;;;;;;;0.03;0.03;;;18.50;71.20;;;;;;4191493;28;20048;-70
2022/06/03 05:23:23;;;;;;;0.00;0.00;;;18.50;71.00;;;;;;4190727;28;20056;-71
2022/06/03 05:26:21;;;;;;;0.00;0.00;;;18.60;70.50;;;;;;4191609;28;20041;-72
2022/06/03 05:29:06;;;;;;;0.88;0.85;;;18.70;69.90;;;;;;4191392;28;20044;-69
2022/06/03 05:32:05;;;;;;;0.00;0.00;;;18.70;69.40;;;;;;4190186;28;20045;-70
2022/06/03 05:35:09;;;;;;;0.00;0.00;;;18.80;69.10;;;;;;4189200;28;20474;-69
2022/06/03 05:38:00;;;;;;;0.05;0.05;;;18.80;68.70;;;;;;4192822;28;20064;-69
2022/06/03 05:40:45;;;;;;;0.00;0.00;;;18.80;68.70;;;;;;4195245;28;20048;-70
2022/06/03 05:43:48;;;;;;;0.00;0.00;;;18.80;68.60;;;;;;4194766;28;20048;-69
2022/06/03 05:46:15;;;;;;;0.88;0.52;;;18.80;68.30;;;;;;4194681;28;20044;-70
2022/06/03 05:48:51;;;;;;;0.22;0.22;;;18.80;68.10;;;;;;4194532;28;20121;-70
2022/06/03 05:51:25;;;;;;;0.28;0.28;;;18.80;68.60;;;;;;4194888;28;20048;-69
2022/06/03 05:53:56;;;;;;;0.52;0.52;;;18.80;69.20;;;;;;4193483;28;20048;-69
2022/06/03 05:56:38;;;;;;;0.00;0.00;;;18.70;69.60;;;;;;4194928;28;20461;-70
2022/06/03 05:59:09;;;;;;;0.68;0.68;;;18.70;69.70;;;;;;4178475;28;20527;-70
2022/06/03 06:01:44;;;;;;;0.00;0.00;;;18.70;68.80;;;;;;4178436;28;20041;-70
2022/06/03 06:04:16;;;;;;;0.00;0.00;;;18.70;68.80;;;;;;4176937;28;20083;-69
2022/06/03 06:06:54;;;;;;;0.00;0.00;;;18.60;68.50;;;;;;4178421;28;20041;-69
2022/06/03 06:09:34;;;;;;;12.95;2.90;;;18.60;68.40;;;;;;4177878;28;20033;-69
2022/06/03 06:12:15;;;;;;;0.00;0.00;;;18.60;67.80;;;;;;4177957;28;20045;-69
2022/06/03 06:14:50;;;;;;;0.10;0.10;;;18.60;67.80;;;;;;4194265;28;20143;-70
2022/06/03 06:17:37;;;;;;;7.03;1.65;;;18.60;68.30;;;;;;4194156;28;20044;-69
2022/06/03 06:20:12;;;;;;;0.00;0.00;;;18.50;68.10;;;;;;4192558;28;20206;-69
2022/06/03 06:22:44;;;;;;;0.00;0.00;;;18.60;67.90;;;;;;4193282;28;20036;-70
2022/06/03 06:25:12;;;;;;;0.22;0.22;;;18.60;67.90;;;;;;4194179;28;20053;-70
2022/06/03 06:27:59;;;;;;;0.00;0.00;;;18.60;68.60;;;;;;4192925;28;20075;-69
2022/06/03 06:30:57;;;;;;;0.00;0.00;;;18.60;67.60;;;;;;4192723;28;20044;-70
2022/06/03 06:33:46;;;;;;;0.00;0.00;;;18.60;67.70;;;;;;4166709;28;20052;-70
2022/06/03 06:36:46;;;;;;;0.00;0.00;;;18.60;67.80;;;;;;4194256;28;20048;-70
2022/06/03 06:39:24;;;;;;;0.00;0.00;;;18.70;67.80;;;;;;4194097;28;20049;-70
2022/06/03 06:41:57;;;;;;;0.00;0.00;;;18.70;67.60;;;;;;4177575;28;20045;-70
2022/06/03 06:44:34;;;;;;;0.15;0.15;;;18.80;67.50;;;;;;4184673;28;20063;-69
2022/06/03 06:47:00;;;;;;;0.00;0.00;;;18.80;66.90;;;;;;4190143;28;20043;-70
2022/06/03 06:49:27;;;;;;;0.00;0.00;;;18.90;66.80;;;;;;4193553;28;20067;-69
2022/06/03 06:52:11;;;;;;;0.28;0.25;;;19.00;66.70;;;;;;4177566;28;20128;-70
2022/06/03 06:54:42;;;;;;;0.00;0.00;;;19.00;66.20;;;;;;4193901;28;20117;-67
2022/06/03 06:57:12;;;;;;;0.00;0.00;;;19.20;66.40;;;;;;4193625;28;20052;-66
2022/06/03 06:59:40;;;;;;;0.00;0.00;;;19.20;66.10;;;;;;4193869;28;20427;-66
2022/06/03 07:02:07;;;;;;;0.00;0.00;;;19.30;66.80;;;;;;4192426;28;20048;-66
2022/06/03 07:04:34;;;;;;;0.00;0.00;;;19.40;65.80;;;;;;4192964;28;20539;-66
2022/06/03 07:07:04;;;;;;;0.00;0.00;;;19.40;65.40;;;;;;4176788;28;20076;-66
2022/06/03 07:09:46;;;;;;;0.00;0.00;;;19.50;64.90;;;;;;4176596;28;20080;-66
2022/06/03 07:12:13;;;;;;;0.00;0.00;;;19.50;64.70;;;;;;4193659;28;20052;-66
2022/06/03 07:14:44;;;;;;;1.00;0.30;;;19.60;63.80;;;;;;4191575;28;20045;-66
2022/06/03 07:20:00;;;;;;;0.00;0.00;;;19.60;63.40;;;;;;4188713;28;20057;-66
2022/06/03 07:22:28;;;;;;;0.00;0.00;;;19.70;62.40;;;;;;4192754;28;20044;-70
2022/06/03 07:24:59;;;;;;;0.00;0.00;;;19.70;62.40;;;;;;4191789;28;20052;-71
2022/06/03 07:27:29;;;;;;;0.00;0.00;;;19.70;63.00;;;;;;4193093;28;20051;-70
2022/06/03 07:30:00;;;;;;;0.52;0.52;;;19.80;63.50;;;;;;4193312;28;20040;-70
2022/06/03 07:32:26;;;;;;;0.10;0.10;;;19.70;63.40;;;;;;4193073;28;20123;-70
2022/06/03 07:34:53;;;;;;;0.00;0.00;;;19.70;63.10;;;;;;4192839;28;20075;-69
2022/06/03 07:37:23;;;;;;;0.00;0.00;;;19.80;63.20;;;;;;4192981;28;20052;-70
2022/06/03 07:39:50;;;;;;;0.00;0.00;;;19.80;63.00;;;;;;4193692;28;21026;-70
2022/06/03 07:42:20;;;;;;;0.00;0.00;;;19.80;62.00;;;;;;4193010;28;20515;-69
2022/06/03 07:44:54;;;;;;;0.00;0.00;;;19.80;62.90;;;;;;4190666;28;20067;-70
2022/06/03 07:47:18;;;;;;;0.00;0.00;;;19.80;62.90;;;;;;4191935;28;20051;-70
2022/06/03 07:49:41;;;;;;;0.10;0.10;;;19.80;63.10;;;;;;4192880;28;20172;-70
2022/06/03 07:52:08;;;;;;;0.00;0.00;;;19.80;63.10;;;;;;4192975;28;20052;-70
2022/06/03 07:54:34;;;;;;;1.20;1.13;;;19.80;64.00;;;;;;4192363;28;20074;-70
2022/06/03 07:57:05;;;;;;;0.00;0.00;;;19.80;62.90;;;;;;4191631;28;20071;-74
2022/06/03 07:59:30;;;;;;;0.00;0.00;;;19.80;62.30;;;;;;4175144;28;20520;-70
2022/06/03 08:02:00;;;;;;;0.00;0.00;;;19.80;62.00;;;;;;4176475;28;20076;-70
2022/06/03 08:04:28;;;;;;;0.00;0.00;;;19.80;62.10;;;;;;4176301;28;20055;-69
2022/06/03 08:12:15;;;;;;;0.00;0.00;;;19.80;60.30;;;;;;4161709;28;20041;-70
2022/06/03 08:14:37;;;;;;;0.00;0.00;;;19.90;61.20;;;;;;4192893;28;20131;-70
2022/06/03 08:17:05;;;;;;;0.20;0.20;;;19.90;61.10;;;;;;4192494;28;20586;-71
2022/06/03 08:19:30;;;;;;;8.30;2.10;;;19.90;61.50;;;;;;4191956;28;20044;-71
2022/06/03 08:21:54;;;;;;;0.00;0.00;;;19.90;61.10;;;;;;4191145;28;20106;-69
2022/06/03 08:24:23;;;;;;;0.00;0.00;;;19.90;61.50;;;;;;4175406;28;20481;-70
2022/06/03 08:26:49;;;;;;;0.35;0.35;;;19.90;61.60;;;;;;4174472;28;20050;-70
2022/06/03 08:29:16;;;;;;;0.00;0.00;;;19.90;60.40;;;;;;4175735;28;20045;-71
2022/06/03 08:31:39;;;;;;;1.25;0.75;;;20.00;61.00;;;;;;4174049;28;20491;-71
2022/06/03 08:34:05;;;;;;;0.00;0.00;;;20.00;60.00;;;;;;4191613;28;20041;-71
2022/06/03 08:36:31;;;;;;;0.00;0.00;;;20.00;60.00;;;;;;4192274;28;20044;-70
2022/06/03 08:38:57;;;;;;;0.00;0.00;;;20.00;60.30;;;;;;4192113;28;20174;-70
2022/06/03 08:41:34;;;;;;;0.00;0.00;;;20.00;60.30;;;;;;4191607;28;20056;-70
2022/06/03 08:44:14;;;;;;;0.08;0.08;;;20.00;60.50;;;;;;4187627;28;20040;-70
2022/06/03 08:46:42;;;;;;;0.30;0.30;;;20.10;60.60;;;;;;4180960;28;20051;-70
2022/06/03 08:49:11;;;;;;;0.00;0.00;;;20.10;60.00;;;;;;4191492;28;20472;-70
2022/06/03 08:51:37;;;;;;;0.05;0.05;;;20.10;60.00;;;;;;4191755;28;20048;-70
2022/06/03 08:54:06;;;;;;;0.00;0.00;;;20.10;60.20;;;;;;4191157;28;20060;-70
2022/06/03 08:56:33;;;;;;;0.00;0.00;;;20.10;60.20;;;;;;4192083;28;20436;-70
2022/06/03 08:59:01;;;;;;;0.10;0.10;;;20.20;60.00;;;;;;4191800;28;20696;-70
2022/06/03 09:01:33;;;;;;;0.00;0.00;;;20.20;59.40;;;;;;4192448;28;20045;-69
2022/06/03 09:04:10;;;;;;;0.00;0.00;;;20.20;58.60;;;;;;4191488;28;20052;-70
2022/06/03 09:06:41;;;;;;;0.00;0.00;;;20.20;58.90;;;;;;4192183;28;20041;-70
2022/06/03 09:09:10;;;;;;;0.32;0.32;;;20.30;58.50;;;;;;4192034;28;20052;-71
2022/06/03 09:11:39;;;;;;;0.00;0.00;;;20.30;58.10;;;;;;4189820;28;20452;-70
2022/06/03 09:14:05;;;;;;;0.00;0.00;;;20.30;59.00;;;;;;4191270;28;20056;-70
2022/06/03 09:16:30;;;;;;;0.03;0.03;;;20.30;59.10;;;;;;4176188;28;20052;-70
2022/06/03 09:18:56;;;;;;;0.17;0.17;;;20.40;59.30;;;;;;4191756;28;20059;-69
2022/06/03 09:21:25;;;;;;;0.00;0.00;;;20.40;59.00;;;;;;4175381;28;20085;-70
2022/06/03 09:23:50;;;;;;;0.30;0.30;;;20.40;58.50;;;;;;4174986;28;20048;-70
2022/06/03 09:26:21;;;;;;;0.00;0.00;;;20.50;58.40;;;;;;4173702;28;20052;-70
2022/06/03 09:28:43;;;;;;;0.00;0.00;;;20.50;59.10;;;;;;4174829;28;20103;-70
2022/06/03 09:31:08;;;;;;;1.08;0.98;;;20.50;59.30;;;;;;4186830;28;20052;-71
2022/06/03 09:33:33;;;;;;;0.30;0.30;;;20.50;59.50;;;;;;4191110;28;20072;-71
2022/06/03 09:35:58;;;;;;;0.00;0.00;;;20.50;58.70;;;;;;4167581;28;20057;-70
2022/06/03 09:38:25;;;;;;;0.00;0.00;;;20.60;59.10;;;;;;4180326;28;20053;-70
2022/06/03 09:40:48;;;;;;;0.00;0.00;;;20.60;58.60;;;;;;4191774;28;20052;-71
2022/06/03 09:43:18;;;;;;;0.10;0.10;;;20.60;58.80;;;;;;4191802;28;20044;-70
2022/06/03 09:45:45;;;;;;;0.00;0.00;;;20.60;58.40;;;;;;4191733;28;22359;-70
2022/06/03 09:48:09;;;;;;;0.00;0.00;;;20.60;57.90;;;;;;4190081;28;20106;-70
2022/06/03 09:50:32;;;;;;;0.00;0.00;;;20.70;58.60;;;;;;4191633;28;20048;-70
2022/06/03 09:53:01;;;;;;;0.00;0.00;;;20.70;58.30;;;;;;4191997;28;20080;-70
2022/06/03 09:55:30;;;;;;;0.45;0.45;;;20.70;58.50;;;;;;4190510;28;20048;-69
2022/06/03 09:57:55;;;;;;;0.05;0.05;;;20.70;57.90;;;;;;4191443;28;20127;-70
2022/06/03 10:00:21;;;;;;;0.00;0.00;;;20.70;57.30;;;;;;4190004;28;20522;-70
2022/06/03 10:02:43;;;;;;;0.00;0.00;;;20.80;57.90;;;;;;4190627;28;20048;-69
2022/06/03 10:05:07;;;;;;;0.15;0.15;;;20.80;57.50;;;;;;4191038;28;20088;-70
2022/06/03 10:07:29;;;;;;;0.57;0.57;;;20.80;57.60;;;;;;4191593;28;20133;-70
2022/06/03 10:12:49;;;;;;;0.00;0.00;;;20.80;57.60;;;;;;4191394;28;20087;-70
2022/06/03 10:17:55;;;;;;;0.00;0.00;;;20.90;57.90;;;;;;4189375;28;20060;-69
2022/06/03 10:20:19;;;;;;;0.00;0.00;;;20.90;57.30;;;;;;4189958;28;20044;-70
2022/06/03 10:22:41;;;;;;;0.00;0.00;;;20.90;57.30;;;;;;4191271;28;20143;-70
2022/06/03 10:25:04;;;;;;;0.00;0.00;;;20.90;57.20;;;;;;4194569;28;20125;-70
2022/06/03 10:27:26;;;;;;;0.13;0.13;;;21.00;57.30;;;;;;4193580;28;20044;-68
2022/06/03 10:29:51;;;;;;;0.00;0.00;;;21.00;57.30;;;;;;4194464;28;20094;-67
2022/06/03 10:32:16;;;;;;;0.20;0.20;;;21.00;56.50;;;;;;4193711;28;20095;-70
2022/06/03 10:34:41;;;;;;;0.22;0.22;;;21.00;56.80;;;;;;4192103;28;20052;-68
2022/06/03 10:37:07;;;;;;;0.00;0.00;;;21.00;57.00;;;;;;4193697;28;20057;-71
2022/06/03 10:39:33;;;;;;;1.15;1.15;;;21.00;56.90;;;;;;4193708;28;20049;-70
2022/06/03 10:41:59;;;;;;;0.00;0.00;;;21.10;56.80;;;;;;4193807;28;20036;-70
2022/06/03 10:44:23;;;;;;;0.15;0.15;;;21.10;56.40;;;;;;4193776;28;20133;-69
2022/06/03 10:46:55;;;;;;;0.00;0.00;;;21.10;56.20;;;;;;4193857;28;20049;-69
2022/06/03 10:49:17;;;;;;;0.47;0.47;;;21.10;56.40;;;;;;4191837;28;20379;-68
2022/06/03 11:02:27;;;;;;;0.00;0.00;;;21.20;55.30;;;;;;4193669;28;20415;-68
2022/06/03 11:04:50;;;;;;;0.80;0.63;;;21.20;55.60;;;;;;4194080;28;20055;-69
2022/06/03 11:07:24;;;;;;;4.13;1.55;;;21.20;55.00;;;;;;4194001;28;20136;-69
2022/06/03 11:09:54;;;;;;;0.00;0.00;;;21.20;55.70;;;;;;4193196;28;20449;-68
2022/06/03 11:12:24;;;;;;;2.83;1.45;;;21.20;55.30;;;;;;4193375;28;20149;-69
2022/06/03 11:14:46;;;;;;;0.20;0.20;;;21.20;55.60;;;;;;4193749;28;20072;-68
2022/06/03 11:17:18;;;;;;;0.00;0.00;;;21.20;54.20;;;;;;4193511;28;20059;-68
2022/06/03 11:19:45;;;;;;;;;;;21.30;55.00;;;;;;4193604;28;20045;-69
2022/06/03 11:22:29;;;;;;;0.70;0.70;;;21.30;55.10;;;;;;4193221;28;19928;-69
2022/06/03 11:24:55;;;;;;;0.20;0.20;;;21.40;54.80;;;;;;4193657;28;20109;-69
2022/06/03 11:27:21;;;;;;;0.00;0.00;;;21.40;54.40;;;;;;4193568;28;20122;-69
2022/06/03 11:29:46;;;;;;;0.20;0.20;;;21.40;54.50;;;;;;4193226;28;20052;-69
2022/06/03 11:32:11;;;;;;;0.00;0.00;;;21.40;54.30;;;;;;4192807;28;20068;-69
2022/06/03 11:34:38;;;;;;;0.43;0.43;;;21.40;54.20;;;;;;4192636;28;20446;-68
2022/06/03 11:37:06;;;;;;;0.10;0.10;;;21.40;54.80;;;;;;4193207;28;20110;-68
2022/06/03 11:39:34;;;;;;;0.15;0.15;;;21.40;54.80;;;;;;4193214;28;20084;-68
2022/06/03 11:41:59;;;;;;;0.00;0.00;;;21.40;54.50;;;;;;4193345;28;20048;-68
2022/06/03 11:44:37;;;;;;;0.17;0.17;;;21.40;53.40;;;;;;4193068;28;20475;-68
2022/06/03 11:47:06;;;;;;;0.17;0.17;;;21.50;53.30;;;;;;4192525;28;20067;-68
2022/06/03 11:49:29;;;;;;;0.00;0.00;;;21.50;53.80;;;;;;4193254;28;20060;-68
2022/06/03 11:51:51;;;;;;;0.00;0.00;;;21.50;54.00;;;;;;4193344;28;20076;-68
2022/06/03 11:54:17;;;;;;;0.00;0.00;;;21.50;54.10;;;;;;4191721;28;20188;-68
2022/06/03 11:56:41;;;;;;;0.20;0.20;;;21.50;54.50;;;;;;4193290;28;20056;-68
2022/06/03 11:59:10;;;;;;;0.00;0.00;;;21.50;54.20;;;;;;4192952;28;20075;-68
2022/06/03 12:01:42;;;;;;;0.00;0.00;;;21.50;54.00;;;;;;4192733;28;20499;-68
2022/06/03 12:04:16;;;;;;;0.00;0.00;;;21.50;54.90;;;;;;4190564;28;20056;-68
2022/06/03 12:06:43;;;;;;;0.17;0.17;;;21.50;54.10;;;;;;4192691;28;20123;-68
2022/06/03 12:09:17;;;;;;;0.00;0.00;;;21.50;54.20;;;;;;4192757;28;20057;-68
2022/06/03 12:14:39;;;;;;;0.00;0.00;;;21.50;54.00;;;;;;4191042;28;20087;-68
2022/06/03 12:17:26;;;;;;;0.00;0.00;;;21.60;54.30;;;;;;4192301;28;20048;-68
2022/06/03 12:19:50;;;;;;;0.00;0.00;;;21.60;53.80;;;;;;4191817;28;20058;-68
2022/06/03 12:22:22;;;;;;;0.00;0.00;;;21.60;53.60;;;;;;4192859;28;20412;-68
2022/06/03 12:25:25;;;;;;;2.55;0.50;;;21.60;54.30;;;;;;4192339;28;20050;-68
2022/06/03 12:27:54;;;;;;;6.22;1.20;;;21.60;54.00;;;;;;4191887;28;20048;-67
2022/06/03 12:30:37;;;;;;;0.00;0.00;;;21.60;53.50;;;;;;4192321;28;20059;-68
2022/06/03 12:33:03;;;;;;;0.00;0.00;;;21.70;53.10;;;;;;4192151;28;20098;-68
2022/06/03 12:36:07;;;;;;;0.00;0.00;;;21.70;52.60;;;;;;4192761;28;20044;-67
2022/06/03 12:38:40;;;;;;;0.00;0.00;;;21.70;52.20;;;;;;4192092;28;20094;-68
2022/06/03 12:41:05;;;;;;;0.00;0.00;;;21.70;51.10;;;;;;4192662;28;20044;-68
2022/06/03 12:43:53;;;;;;;0.00;0.00;;;21.70;50.60;;;;;;4192638;28;20466;-67
2022/06/03 12:46:42;;;;;;;0.00;0.00;;;21.70;51.40;;;;;;4191251;28;20468;-68
2022/06/03 12:49:15;;;;;;;0.00;0.00;;;21.70;51.30;;;;;;4191833;28;20495;-67
2022/06/03 12:51:57;;;;;;;0.00;0.00;;;21.70;51.30;;;;;;4188414;28;20044;-67
2022/06/03 12:54:20;;;;;;;0.68;0.68;;;21.70;50.90;;;;;;4192156;28;20450;-67
2022/06/03 12:56:46;;;;;;;0.00;0.00;;;21.70;50.50;;;;;;4192359;28;20048;-67
2022/06/03 12:59:18;;;;;;;0.00;0.00;;;21.80;51.00;;;;;;4190880;28;20542;-67
2022/06/03 13:02:01;;;;;;;0.00;0.00;;;21.80;51.20;;;;;;4190560;28;20048;-67
2022/06/03 13:04:48;;;;;;;0.00;0.00;;;21.80;50.90;;;;;;4191939;28;20109;-67
2022/06/03 13:07:12;;;;;;;0.00;0.00;;;21.80;50.30;;;;;;4175611;28;20045;-67
2022/06/03 13:09:49;;;;;;;0.00;0.00;;;21.80;49.60;;;;;;4192384;28;20127;-67
2022/06/03 13:12:21;;;;;;;0.00;0.00;;;21.80;49.50;;;;;;4190482;28;20055;-67
2022/06/03 13:14:43;;;;;;;0.00;0.00;;;21.80;50.20;;;;;;4190552;28;20048;-66
2022/06/03 13:17:06;;;;;;;0.05;0.05;;;21.90;50.30;;;;;;4183542;28;20465;-67
2022/06/03 13:19:58;;;;;;;0.00;0.00;;;21.90;49.50;;;;;;4192300;28;20044;-67
2022/06/03 13:22:36;;;;;;;0.00;0.00;;;21.90;50.10;;;;;;4192075;28;20052;-66
2022/06/03 13:25:26;;;;;;;0.00;0.00;;;21.90;49.40;;;;;;4186185;28;20068;-67
2022/06/03 13:28:23;;;;;;;0.00;0.00;;;21.90;49.80;;;;;;4191906;28;20056;-67
2022/06/03 13:31:08;;;;;;;0.17;0.17;;;21.90;49.10;;;;;;4189993;28;20068;-67
2022/06/03 13:33:32;;;;;;;0.00;0.00;;;22.00;49.80;;;;;;4191996;28;20048;-67
2022/06/03 13:36:04;;;;;;;0.10;0.10;;;22.00;50.80;;;;;;4191976;28;20102;-67
2022/06/03 13:38:41;;;;;;;0.00;0.00;;;22.00;51.30;;;;;;4191660;28;20139;-67
2022/06/03 13:44:08;;;;;;;0.13;0.13;;;22.00;51.90;;;;;;4190614;28;20044;-68
2022/06/03 13:46:33;;;;;;;0.00;0.00;;;22.00;51.80;;;;;;4189235;28;20059;-67
2022/06/03 13:49:02;;;;;;;0.00;0.00;;;22.00;52.10;;;;;;4190349;28;20052;-67
2022/06/03 13:51:33;;;;;;;0.00;0.00;;;22.00;52.10;;;;;;4187022;28;20139;-67
2022/06/03 13:53:58;;;;;;;0.00;0.00;;;21.90;52.10;;;;;;4189829;28;20142;-67
2022/06/03 13:56:24;;;;;;;18.98;2.63;;;21.90;52.30;;;;;;4191606;28;20052;-67
2022/06/03 13:58:46;;;;;;;0.00;0.00;;;21.90;52.20;;;;;;4194556;28;20135;-67
2022/06/03 14:01:22;;;;;;;0.35;0.35;;;21.90;52.20;;;;;;4194769;28;20407;-67
2022/06/03 14:03:52;;;;;;;0.55;0.55;;;21.90;52.30;;;;;;4194377;28;20799;-67
2022/06/03 14:06:21;;;;;;;0.30;0.30;;;21.90;52.20;;;;;;4193911;28;20141;-67
2022/06/03 14:08:46;;;;;;;0.00;0.00;;;22.00;52.40;;;;;;4194229;28;20090;-66
2022/06/03 14:11:13;;;;;;;0.00;0.00;;;22.00;52.70;;;;;;4194697;28;20047;-67
2022/06/03 14:13:42;;;;;;;0.10;0.10;;;21.90;52.80;;;;;;4193932;28;20129;-67
2022/06/03 14:16:08;;;;;;;0.00;0.00;;;22.00;52.80;;;;;;4194567;28;20399;-66